createdAt,value
2022-10-23T00:04:13.155Z,76.11
2022-10-23T00:09:34.855Z,75.92
2022-10-23T00:14:56.202Z,76.06
2022-10-23T00:20:18.318Z,75.91
2022-10-23T00:25:40.006Z,75.93
2022-10-23T00:31:03.380Z,75.80
2022-10-23T00:36:25.310Z,75.76
2022-10-23T00:41:46.573Z,75.74
2022-10-23T00:47:08.666Z,75.85
2022-10-23T00:52:30.997Z,76.00
2022-10-23T00:57:53.344Z,76.21
2022-10-23T01:03:16.872Z,76.41
2022-10-23T01:08:50.031Z,76.62
2022-10-23T01:14:47.456Z,76.66
2022-10-23T01:20:27.880Z,76.87
2022-10-23T01:26:07.450Z,76.71
2022-10-23T01:31:39.539Z,76.75
2022-10-23T01:37:02.527Z,76.84
2022-10-23T01:42:30.427Z,76.72
2022-10-23T01:47:53.607Z,76.61
2022-10-23T01:53:16.284Z,76.97
2022-10-23T01:58:40.021Z,76.75
2022-10-23T02:04:03.755Z,76.76
2022-10-23T02:09:26.186Z,76.68
2022-10-23T02:14:54.444Z,76.47
2022-10-23T02:20:21.498Z,76.37
2022-10-23T02:25:47.488Z,76.53
2022-10-23T02:31:14.477Z,76.58
2022-10-23T02:36:37.634Z,76.27
2022-10-23T02:42:06.661Z,76.45
2022-10-23T02:47:32.451Z,76.30
2022-10-23T02:53:00.103Z,76.31
2022-10-23T02:58:29.633Z,76.15
2022-10-23T03:03:54.255Z,76.09
2022-10-23T03:09:15.893Z,75.91
2022-10-23T03:14:37.407Z,76.07
2022-10-23T03:19:59.543Z,75.90
2022-10-23T03:25:21.267Z,75.92
2022-10-23T03:30:43.396Z,76.14
2022-10-23T03:36:06.017Z,75.97
2022-10-23T03:41:28.057Z,76.34
2022-10-23T03:46:49.490Z,76.05
2022-10-23T03:52:10.994Z,76.17
2022-10-23T03:57:33.405Z,76.54
2022-10-23T04:02:55.194Z,76.64
2022-10-23T04:08:20.005Z,76.58
2022-10-23T04:13:44.751Z,76.41
2022-10-23T04:19:06.474Z,76.65
2022-10-23T04:24:28.109Z,76.53
2022-10-23T04:29:50.571Z,76.57
2022-10-23T04:35:13.071Z,76.44
2022-10-23T04:40:34.797Z,76.55
2022-10-23T04:45:56.528Z,76.40
2022-10-23T04:51:18.371Z,76.53
2022-10-23T04:56:46.213Z,76.79
2022-10-23T05:02:11.188Z,76.78
2022-10-23T05:07:33.968Z,76.99
2022-10-23T05:13:06.446Z,76.86
2022-10-23T05:18:27.973Z,76.70
2022-10-23T05:23:49.879Z,76.39
2022-10-23T05:29:12.098Z,76.47
2022-10-23T05:34:35.769Z,76.34
2022-10-23T05:39:59.003Z,76.42
2022-10-23T05:45:21.676Z,76.34
2022-10-23T05:51:06.750Z,76.45
2022-10-23T05:56:52.005Z,76.81
2022-10-23T06:02:33.496Z,76.52
2022-10-23T06:08:00.302Z,76.46
2022-10-23T06:13:22.505Z,76.72
2022-10-23T06:18:46.128Z,76.67
2022-10-23T06:24:09.906Z,76.69
2022-10-23T06:29:52.238Z,76.64
2022-10-23T06:35:14.742Z,76.99
2022-10-23T06:40:37.872Z,77.06
2022-10-23T06:46:03.361Z,77.04
2022-10-23T06:51:51.025Z,77.15
2022-10-23T06:57:15.769Z,77.36
2022-10-23T07:02:39.906Z,77.08
2022-10-23T07:08:02.136Z,76.80
2022-10-23T07:13:29.988Z,76.90
2022-10-23T07:19:09.075Z,76.59
2022-10-23T07:25:05.529Z,76.65
2022-10-23T07:30:31.786Z,76.56
2022-10-23T07:35:54.303Z,76.80
2022-10-23T07:41:21.648Z,76.43
2022-10-23T07:46:43.782Z,76.51
2022-10-23T07:52:06.314Z,76.45
2022-10-23T07:57:39.848Z,76.22
2022-10-23T08:03:18.520Z,75.93
2022-10-23T08:08:41.710Z,75.73
2022-10-23T08:14:06.100Z,75.37
2022-10-23T08:19:28.418Z,75.34
2022-10-23T08:24:54.316Z,75.15
2022-10-23T08:30:17.109Z,75.08
2022-10-23T08:35:40.361Z,74.89
2022-10-23T08:41:03.415Z,74.77
2022-10-23T08:46:53.490Z,75.00
2022-10-23T08:52:43.527Z,74.93
2022-10-23T08:58:23.707Z,75.14
2022-10-23T09:03:45.795Z,75.20
2022-10-23T09:09:43.013Z,75.17
2022-10-23T09:15:23.486Z,75.44
2022-10-23T09:20:46.577Z,75.26
2022-10-23T09:26:15.029Z,75.38
2022-10-23T09:31:48.617Z,75.18
2022-10-23T09:37:26.895Z,75.15
2022-10-23T09:42:51.792Z,74.92
2022-10-23T09:48:16.262Z,74.98
2022-10-23T09:53:40.606Z,74.54
2022-10-23T09:59:06.042Z,74.47
2022-10-23T10:04:36.652Z,74.19
2022-10-23T10:09:58.276Z,73.71
2022-10-23T10:15:26.677Z,73.47
2022-10-23T10:21:00.037Z,73.19
2022-10-23T10:32:22.522Z,72.76
2022-10-23T10:38:06.829Z,72.40
2022-10-23T10:43:41.825Z,72.07
2022-10-23T10:49:07.351Z,72.15
2022-10-23T10:54:42.078Z,72.24
2022-10-23T11:00:17.076Z,72.09
2022-10-23T11:05:42.768Z,71.77
2022-10-23T11:11:12.173Z,70.91
2022-10-23T11:16:36.925Z,70.33
2022-10-23T11:22:09.533Z,69.80
2022-10-23T11:27:42.905Z,69.42
2022-10-23T11:33:12.799Z,69.05
2022-10-23T11:38:37.055Z,69.08
2022-10-23T11:44:03.590Z,69.10
2022-10-23T11:49:25.559Z,68.96
2022-10-23T11:54:47.601Z,68.55
2022-10-23T12:00:21.747Z,68.47
2022-10-23T12:05:45.842Z,68.46
2022-10-23T12:11:40.203Z,68.50
2022-10-23T12:17:02.177Z,68.24
2022-10-23T12:22:28.134Z,67.81
2022-10-23T12:28:09.116Z,67.20
2022-10-23T12:33:41.683Z,66.78
2022-10-23T12:39:03.311Z,66.63
2022-10-23T12:44:25.946Z,66.41
2022-10-23T12:49:49.477Z,66.07
2022-10-23T12:55:14.332Z,66.21
2022-10-23T13:00:35.900Z,66.14
2022-10-23T13:05:59.279Z,66.03
2022-10-23T13:11:21.962Z,65.91
2022-10-23T13:16:44.849Z,65.84
2022-10-23T13:22:21.373Z,65.76
2022-10-23T13:27:43.499Z,65.72
2022-10-23T13:33:20.728Z,65.87
2022-10-23T13:38:45.236Z,65.83
2022-10-23T13:44:10.594Z,65.59
2022-10-23T13:49:32.749Z,65.55
2022-10-23T13:54:54.850Z,65.46
2022-10-23T14:00:18.018Z,65.64
2022-10-23T14:05:40.902Z,65.93
2022-10-23T14:11:02.899Z,66.00
2022-10-23T14:16:24.866Z,66.35
2022-10-23T14:21:46.827Z,66.43
2022-10-23T14:27:08.966Z,66.60
2022-10-23T14:32:31.054Z,66.97
2022-10-23T14:37:52.889Z,67.19
2022-10-23T14:43:14.650Z,67.28
2022-10-23T14:48:37.941Z,67.40
2022-10-23T14:54:01.920Z,67.46
2022-10-23T14:59:23.666Z,67.58
2022-10-23T15:04:45.268Z,67.82
2022-10-23T15:10:08.720Z,68.01
2022-10-23T15:15:30.954Z,68.08
2022-10-23T15:20:52.975Z,68.42
2022-10-23T15:26:22.787Z,68.58
2022-10-23T15:31:58.421Z,68.77
2022-10-23T15:37:20.337Z,69.01
2022-10-23T15:42:42.372Z,69.33
2022-10-23T15:48:05.809Z,69.50
2022-10-23T15:53:27.703Z,69.38
2022-10-23T15:58:49.358Z,69.86
2022-10-23T16:04:11.490Z,70.52
2022-10-23T16:09:33.193Z,70.62
2022-10-23T16:14:55.364Z,70.69
2022-10-23T16:20:17.384Z,70.76
2022-10-23T16:25:39.613Z,71.00
2022-10-23T16:31:01.521Z,71.31
2022-10-23T16:36:23.175Z,71.30
2022-10-23T16:42:11.131Z,71.67
2022-10-23T16:47:43.438Z,72.15
2022-10-23T16:53:05.168Z,72.88
2022-10-23T16:58:27.265Z,73.48
2022-10-23T17:03:51.749Z,73.22
2022-10-23T17:09:13.425Z,73.36
2022-10-23T17:14:35.306Z,73.25
2022-10-23T17:19:57.435Z,73.61
2022-10-23T17:25:19.172Z,73.92
2022-10-23T17:30:41.395Z,73.88
2022-10-23T17:36:03.525Z,73.91
2022-10-23T17:41:25.956Z,73.96
2022-10-23T17:46:53.972Z,74.17
2022-10-23T17:52:16.787Z,74.43
2022-10-23T17:57:38.671Z,74.38
2022-10-23T18:03:00.145Z,74.57
2022-10-23T18:08:21.724Z,74.58
2022-10-23T18:13:43.659Z,74.66
2022-10-23T18:19:05.382Z,74.76
2022-10-23T18:24:27.312Z,74.88
2022-10-23T18:29:49.744Z,75.22
2022-10-23T18:35:11.573Z,75.14
2022-10-23T18:40:34.553Z,75.52
2022-10-23T18:45:56.249Z,75.88
2022-10-23T18:51:24.444Z,75.95
2022-10-23T18:56:47.242Z,76.20
2022-10-23T19:02:11.740Z,76.40
2022-10-23T19:07:34.397Z,76.52
2022-10-23T19:12:56.020Z,76.22
2022-10-23T19:18:17.991Z,76.05
2022-10-23T19:23:41.093Z,76.12
2022-10-23T19:29:02.936Z,76.21
2022-10-23T19:34:25.212Z,75.72
2022-10-23T19:39:46.804Z,75.86
2022-10-23T19:45:12.008Z,76.00
2022-10-23T19:50:33.480Z,75.38
2022-10-23T19:56:06.853Z,75.14
2022-10-23T20:01:28.823Z,76.43
2022-10-23T20:06:51.109Z,76.32
2022-10-23T20:12:12.805Z,76.05
2022-10-23T20:17:34.523Z,76.38
2022-10-23T20:22:56.353Z,76.17
2022-10-23T20:28:18.092Z,76.23
2022-10-23T20:33:41.044Z,76.46
2022-10-23T20:39:05.852Z,76.57
2022-10-23T20:44:27.879Z,75.84
2022-10-23T20:49:49.662Z,75.17
2022-10-23T20:55:11.484Z,74.94
2022-10-23T21:00:33.177Z,75.16
2022-10-23T21:05:54.595Z,76.49
2022-10-23T21:11:17.527Z,76.96
2022-10-23T21:16:46.545Z,76.99
2022-10-23T21:22:08.512Z,76.86
2022-10-23T21:27:30.843Z,75.90
2022-10-23T21:32:52.572Z,76.42
2022-10-23T21:38:13.901Z,76.50
2022-10-23T21:43:35.990Z,76.99
2022-10-23T21:48:59.992Z,77.63
2022-10-23T21:54:21.996Z,77.95
2022-10-23T21:59:44.329Z,78.32
2022-10-23T22:05:06.556Z,78.44
2022-10-23T22:10:28.387Z,78.23
2022-10-23T22:15:50.186Z,77.77
2022-10-23T22:21:15.451Z,77.40
2022-10-23T22:26:39.482Z,77.56
2022-10-23T22:32:01.897Z,77.10
2022-10-23T22:37:23.651Z,76.78
2022-10-23T22:42:45.608Z,76.98
2022-10-23T22:48:08.752Z,77.25
2022-10-23T22:53:30.488Z,77.72
2022-10-23T22:58:52.866Z,77.99
2022-10-23T23:04:41.679Z,78.73
2022-10-23T23:09:59.914Z,78.52
2022-10-23T23:15:21.443Z,78.72
2022-10-23T23:20:42.815Z,78.57
2022-10-23T23:26:06.705Z,78.47
2022-10-23T23:31:28.276Z,78.74
2022-10-23T23:36:49.994Z,78.26
2022-10-23T23:42:12.195Z,78.31
2022-10-23T23:47:33.818Z,78.79
2022-10-23T23:52:55.653Z,78.80
2022-10-23T23:58:17.675Z,78.92
